Terminal Aerodrome Forecast
Issued by NWS

Current Version | Previous Version | Text Only | Print | Product List | Glossary Off
Versions: 1 2 3 4 5 6 7 8 9 10 11 12 13 14 15 16 17 18 19

000
FTUS42 KMHX 221700
TAFOAJ
TAF
KOAJ 221722Z 2218/2318 01007KT 5SM -DZ BR OVC006
      TEMPO 2221/2223 3SM -RA BR OVC004
     FM222300 02003KT 1SM -RA BR OVC003
     FM231000 07005KT 3SM -RA BR BKN004
      AMD LTD TO CLD VIS AND WIND=

USA.gov is the U.S. government's official web portal to all federal, state and local government web resources and services.